Time;durP1;ratioP1;P1;durP2;ratioP2;P2;SDS_P1;SDS_P2;PMS_P1;PMS_P2;Temp;Humidity;BMP_temperature;BMP_pressure;BME280_temperature;BME280_humidity;BME280_pressure;Samples;Min_cycle;Max_cycle;Signal;HPM_P1;HPM_P2
2022/12/21 00:00:15;;;;;;;19.10;6.90;;;;;;;2.12;55.53;99229.71;103254;1301;99322;-68
2022/12/21 00:03:03;;;;;;;18.90;6.40;;;;;;;2.12;55.86;99219.04;103257;1300;109603;-69
2022/12/21 00:05:33;;;;;;;18.20;6.40;;;;;;;2.11;55.39;99214.38;103229;1308;99159;-69
2022/12/21 00:08:01;;;;;;;17.80;6.20;;;;;;;2.10;55.83;99214.56;103279;1301;96560;-68
2022/12/21 00:10:29;;;;;;;17.90;6.10;;;;;;;2.10;55.15;99218.43;103216;1300;112925;-68
2022/12/21 00:12:57;;;;;;;17.20;6.50;;;;;;;2.08;55.31;99220.93;103335;1300;99212;-68
2022/12/21 00:15:25;;;;;;;19.40;6.50;;;;;;;2.07;55.60;99226.20;103245;1293;108128;-69
2022/12/21 00:17:54;;;;;;;18.80;6.40;;;;;;;2.07;55.20;99230.92;103291;1302;100842;-68
2022/12/21 00:20:24;;;;;;;16.70;5.90;;;;;;;2.05;55.94;99228.36;103236;1301;96647;-68
2022/12/21 00:22:52;;;;;;;18.60;7.10;;;;;;;2.05;54.77;99227.50;103336;1298;113113;-68
2022/12/21 00:25:20;;;;;;;17.90;6.50;;;;;;;2.04;54.92;99226.31;103364;1294;99922;-68
2022/12/21 00:27:48;;;;;;;20.10;7.30;;;;;;;2.04;55.29;99219.84;103334;1300;108086;-68
2022/12/21 00:30:16;;;;;;;17.70;6.40;;;;;;;2.05;55.51;99218.91;103205;1294;99258;-68
2022/12/21 00:32:46;;;;;;;18.10;7.00;;;;;;;2.04;55.07;99215.82;103254;1300;99937;-68
2022/12/21 00:35:15;;;;;;;20.80;8.00;;;;;;;2.03;55.62;99204.16;103343;1294;112169;-68
2022/12/21 00:37:46;;;;;;;20.20;7.20;;;;;;;2.01;55.32;99206.14;103361;1295;96476;-70
2022/12/21 00:40:17;;;;;;;17.50;6.40;;;;;;;1.99;55.05;99203.60;103232;1294;108164;-68
2022/12/21 00:42:45;;;;;;;18.20;6.70;;;;;;;1.97;55.59;99200.14;103297;1293;98380;-68
2022/12/21 00:45:13;;;;;;;18.30;6.70;;;;;;;1.95;55.29;99204.42;103340;1302;99178;-68
2022/12/21 00:47:41;;;;;;;17.70;6.30;;;;;;;1.93;55.53;99207.80;103251;1293;113517;-69
2022/12/21 00:50:12;;;;;;;18.30;6.40;;;;;;;1.92;55.46;99208.03;103212;1298;99305;-68
2022/12/21 00:52:40;;;;;;;18.90;6.90;;;;;;;1.91;55.28;99206.13;103242;1294;107810;-69
2022/12/21 00:55:10;;;;;;;19.30;7.10;;;;;;;1.90;55.58;99208.27;103227;1301;96866;-69
2022/12/21 00:57:38;;;;;;;20.80;7.00;;;;;;;1.89;55.20;99203.93;103304;1294;99237;-68
2022/12/21 01:00:09;;;;;;;19.20;6.50;;;;;;;1.88;55.50;99208.00;103342;1301;112098;-69
2022/12/21 01:02:37;;;;;;;18.80;7.00;;;;;;;1.88;55.40;99203.45;103272;1300;96565;-69
2022/12/21 01:05:10;;;;;;;19.90;6.90;;;;;;;1.87;55.02;99203.47;103279;1295;108719;-68
2022/12/21 01:07:38;;;;;;;21.10;7.90;;;;;;;1.87;55.57;99199.46;103175;1301;99279;-69
2022/12/21 01:10:09;;;;;;;20.60;6.70;;;;;;;1.85;55.29;99200.02;103336;1297;99202;-69
2022/12/21 01:12:37;;;;;;;18.50;6.70;;;;;;;1.85;55.40;99194.80;103359;1300;112489;-69
2022/12/21 01:15:08;;;;;;;17.60;6.80;;;;;;;1.84;55.25;99196.41;103364;1287;99311;-70
2022/12/21 01:17:36;;;;;;;21.00;7.80;;;;;;;1.84;55.18;99193.63;103279;1302;107939;-69
2022/12/21 01:20:07;;;;;;;18.60;7.20;;;;;;;1.83;55.04;99191.89;103231;1300;98574;-69
2022/12/21 01:22:41;;;;;;;21.60;7.80;;;;;;;1.81;55.28;99191.77;103256;1294;96527;-69
2022/12/21 01:25:09;;;;;;;18.90;6.90;;;;;;;1.79;55.32;99188.20;103339;1295;113169;-68
2022/12/21 01:27:37;;;;;;;18.40;6.70;;;;;;;1.77;55.18;99186.85;103346;1294;98416;-69
2022/12/21 01:30:08;;;;;;;19.60;7.50;;;;;;;1.77;55.08;99178.46;103337;1302;108056;-71
2022/12/21 01:32:39;;;;;;;21.10;7.30;;;;;;;1.74;55.43;99171.73;103352;1301;99238;-71
2022/12/21 01:35:09;;;;;;;19.10;7.40;;;;;;;1.73;55.77;99168.81;103315;1294;99247;-69
2022/12/21 01:37:37;;;;;;;19.50;7.20;;;;;;;1.71;55.58;99168.52;103294;1294;113106;-69
2022/12/21 01:40:10;;;;;;;23.80;7.70;;;;;;;1.69;55.13;99164.40;103382;1293;97754;-69
2022/12/21 01:42:40;;;;;;;18.00;6.40;;;;;;;1.68;55.45;99164.95;103334;1302;107489;-68
2022/12/21 01:45:31;;;;;;;20.80;7.40;;;;;;;1.66;55.45;99165.02;103345;1301;99337;-68
2022/12/21 01:48:13;;;;;;;19.10;6.70;;;;;;;1.67;55.25;99185.29;103385;1295;99280;-68
2022/12/21 01:50:48;;;;;;;;;;;;;;;1.68;55.24;99182.28;103355;1302;113080;-68
2022/12/21 01:53:24;;;;;;;22.70;7.70;;;;;;;1.66;55.26;99180.06;103346;1294;96471;-68
2022/12/21 01:55:58;;;;;;;21.50;8.30;;;;;;;1.68;55.33;99182.80;103301;1293;107560;-69
2022/12/21 01:58:30;;;;;;;21.70;7.90;;;;;;;1.68;55.58;99179.12;103361;1300;99315;-69
2022/12/21 02:01:02;;;;;;;21.40;7.80;;;;;;;1.68;55.65;99172.13;103273;1301;99211;-70
2022/12/21 02:03:38;;;;;;;20.20;6.90;;;;;;;1.67;55.74;99158.72;103310;1302;112482;-69
2022/12/21 02:06:16;;;;;;;21.60;8.00;;;;;;;1.63;55.56;99139.24;103290;1300;97614;-69
2022/12/21 02:08:45;;;;;;;19.20;7.30;;;;;;;1.60;55.64;99133.59;103238;1302;105584;-68
2022/12/21 02:11:15;;;;;;;19.60;7.60;;;;;;;1.57;55.84;99126.73;103300;1297;99268;-68
2022/12/21 02:13:43;;;;;;;22.10;7.60;;;;;;;1.56;55.89;99124.82;103376;1300;99298;-67
2022/12/21 02:16:23;;;;;;;21.80;8.10;;;;;;;1.56;55.90;99123.09;103340;1295;112794;-69
2022/12/21 02:19:23;;;;;;;21.90;8.60;;;;;;;1.55;55.57;99122.92;103347;1294;99268;-69
2022/12/21 02:22:01;;;;;;;20.60;7.40;;;;;;;1.53;55.88;99122.48;103343;1301;106253;-69
2022/12/21 02:24:42;;;;;;;20.90;7.40;;;;;;;1.51;55.75;99126.21;103345;1301;99334;-69
2022/12/21 02:27:41;;;;;;;22.50;7.90;;;;;;;1.51;55.83;99138.46;103358;1309;96693;-69
2022/12/21 02:30:09;;;;;;;21.90;8.30;;;;;;;1.51;55.75;99151.73;103322;1300;112544;-69
2022/12/21 02:33:04;;;;;;;21.00;8.40;;;;;;;1.51;55.83;99151.73;103349;1302;99347;-69
2022/12/21 02:35:42;;;;;;;20.40;8.30;;;;;;;1.51;56.04;99140.72;103335;1300;107634;-70
2022/12/21 02:38:13;;;;;;;22.70;8.90;;;;;;;1.52;55.84;99135.80;103310;1302;99324;-68
2022/12/21 02:41:10;;;;;;;19.50;7.80;;;;;;;1.53;56.13;99126.34;103374;1293;99304;-69
2022/12/21 02:44:14;;;;;;;20.60;7.60;;;;;;;1.53;56.12;99126.67;103327;1300;113124;-69
2022/12/21 02:47:00;;;;;;;20.70;8.70;;;;;;;1.52;56.11;99127.94;103302;1302;99254;-68
2022/12/21 02:49:58;;;;;;;21.30;8.50;;;;;;;1.52;56.22;99116.56;103321;1300;108200;-69
2022/12/21 02:52:28;;;;;;;21.00;7.80;;;;;;;1.53;56.13;99121.95;103313;1300;97781;-69
2022/12/21 02:55:00;;;;;;;21.50;8.50;;;;;;;1.54;56.37;99122.27;103375;1300;97725;-69
2022/12/21 02:57:37;;;;;;;16.60;5.80;;;;;;;1.55;56.59;99120.49;103287;1303;112098;-69
2022/12/21 03:00:14;;;;;;;18.50;6.50;;;;;;;1.56;56.77;99109.77;103359;1300;96581;-69
2022/12/21 03:06:01;;;;;;;20.50;8.30;;;;;;;1.60;56.61;99101.59;103284;1302;99184;-70
2022/12/21 03:08:56;;;;;;;21.70;8.20;;;;;;;1.62;56.59;99101.86;103353;1300;99212;-69
2022/12/21 03:12:00;;;;;;;21.80;8.90;;;;;;;1.65;56.71;99098.11;103294;1302;113196;-70
2022/12/21 03:14:54;;;;;;;21.70;8.70;;;;;;;1.67;56.72;99096.99;103279;1302;98040;-70
2022/12/21 03:17:56;;;;;;;21.60;8.20;;;;;;;1.68;56.97;99096.42;103283;1299;107513;-72
2022/12/21 03:20:37;;;;;;;23.40;9.00;;;;;;;1.70;56.80;99087.27;103320;1300;99414;-71
2022/12/21 03:23:13;;;;;;;23.10;9.10;;;;;;;1.70;56.83;99082.20;103355;1299;99258;-69
2022/12/21 03:25:55;;;;;;;22.10;9.30;;;;;;;1.70;56.64;99088.30;103314;1294;111279;-69
2022/12/21 03:28:31;;;;;;;20.40;7.80;;;;;;;1.70;56.93;99095.14;103336;1299;99249;-70
2022/12/21 03:31:12;;;;;;;19.90;7.80;;;;;;;1.69;56.95;99087.66;103351;1300;107530;-69
2022/12/21 03:33:52;;;;;;;23.60;9.60;;;;;;;1.66;56.89;99092.13;103202;1297;99198;-68
2022/12/21 03:36:29;;;;;;;20.70;7.70;;;;;;;1.64;56.80;99104.94;103213;1300;96887;-68
2022/12/21 03:39:07;;;;;;;21.20;8.30;;;;;;;1.64;56.99;99103.89;103212;1302;112488;-69
2022/12/21 03:41:47;;;;;;;22.20;8.30;;;;;;;1.64;57.03;99096.91;103299;1300;99303;-70
2022/12/21 03:44:24;;;;;;;23.10;8.50;;;;;;;1.63;57.19;99096.25;103327;1299;107426;-70
2022/12/21 03:47:04;;;;;;;20.80;8.10;;;;;;;1.62;56.88;99093.83;103297;1300;96539;-70
2022/12/21 03:49:46;;;;;;;22.30;8.50;;;;;;;1.60;56.92;99100.20;103263;1300;97889;-70
2022/12/21 03:52:20;;;;;;;23.60;8.90;;;;;;;1.57;57.05;99101.71;103292;1302;112488;-69
2022/12/21 03:55:01;;;;;;;22.30;8.00;;;;;;;1.56;57.14;99099.32;103396;1298;99299;-68
2022/12/21 03:57:31;;;;;;;20.70;8.20;;;;;;;1.57;57.00;99113.26;103258;1300;108563;-69
2022/12/21 04:00:04;;;;;;;20.60;8.00;;;;;;;1.58;57.10;99103.60;103288;1298;96607;-68
2022/12/21 04:02:54;;;;;;;25.30;10.00;;;;;;;1.59;57.20;99105.31;103332;1300;99226;-68
2022/12/21 04:05:35;;;;;;;21.80;7.80;;;;;;;1.61;57.23;99103.84;103350;1296;113379;-69
2022/12/21 04:08:06;;;;;;;22.70;9.00;;;;;;;1.63;57.49;99096.57;103316;1299;99314;-68
2022/12/21 04:10:37;;;;;;;20.70;8.40;;;;;;;1.68;57.47;99096.27;103292;1301;107960;-68
2022/12/21 04:13:05;;;;;;;23.10;9.50;;;;;;;1.72;57.42;99082.12;103299;1300;97718;-68
2022/12/21 04:19:57;;;;;;;24.30;9.20;;;;;;;1.80;57.40;99069.97;103170;1294;113018;-68
2022/12/21 04:21:08;;;;;;;22.00;8.50;;;;;;;1.86;58.02;99063.44;103290;1301;97961;-68
2022/12/21 04:29:10;;;;;;;21.10;8.70;;;;;;;2.06;57.89;99073.55;103266;1300;97616;-68
2022/12/21 04:31:38;;;;;;;23.90;9.40;;;;;;;2.10;57.80;99069.55;103262;1300;113205;-68
2022/12/21 04:34:08;;;;;;;25.10;10.00;;;;;;;2.15;57.84;99068.83;103323;1300;99209;-68
2022/12/21 04:39:24;;;;;;;21.50;8.80;;;;;;;2.23;57.88;99062.04;103305;1295;99193;-71
2022/12/21 04:41:54;;;;;;;24.00;9.40;;;;;;;2.28;57.90;99060.82;103358;1300;96559;-68
2022/12/21 04:44:22;;;;;;;24.70;8.80;;;;;;;2.31;57.67;99058.06;103344;1301;112237;-67
2022/12/21 04:46:53;;;;;;;22.50;8.80;;;;;;;2.33;58.05;99048.71;103273;1295;134199;-67
2022/12/21 04:49:21;;;;;;;22.40;8.70;;;;;;;2.35;57.90;99049.88;103282;1299;107771;-69
2022/12/21 04:51:49;;;;;;;22.20;8.80;;;;;;;2.36;57.84;99025.12;103331;1303;99223;-67
2022/12/21 04:54:18;;;;;;;23.70;9.90;;;;;;;2.39;58.04;98996.50;103341;1301;97711;-68
2022/12/21 04:56:48;;;;;;;24.70;9.20;;;;;;;2.39;58.13;98984.95;103280;1295;113104;-69
2022/12/21 04:59:17;;;;;;;21.10;8.10;;;;;;;2.39;57.94;98996.50;103333;1301;96469;-69
2022/12/21 05:01:45;;;;;;;22.80;9.40;;;;;;;2.39;58.04;99009.45;103319;1298;107574;-71
2022/12/21 05:04:15;;;;;;;23.50;9.00;;;;;;;2.41;57.84;99022.17;103293;1294;99333;-68
2022/12/21 05:06:43;;;;;;;23.20;8.40;;;;;;;2.42;57.86;99027.21;103373;1295;96462;-71
2022/12/21 05:09:14;;;;;;;24.50;9.70;;;;;;;2.43;57.62;99040.29;103356;1291;112179;-71
2022/12/21 05:11:42;;;;;;;22.60;8.50;;;;;;;2.45;57.83;99061.91;103302;1300;96553;-69
2022/12/21 05:14:12;;;;;;;21.40;8.80;;;;;;;2.48;57.94;99052.52;103309;1298;108831;-68
2022/12/21 05:16:42;;;;;;;20.30;8.60;;;;;;;2.49;57.92;99053.51;103313;1300;98993;-68
2022/12/21 05:19:10;;;;;;;21.90;8.70;;;;;;;2.51;57.88;99054.33;103347;1301;99321;-67
2022/12/21 05:21:44;;;;;;;23.90;9.70;;;;;;;2.52;57.88;99046.92;103343;1301;113111;-70
2022/12/21 05:24:14;;;;;;;25.00;9.50;;;;;;;2.53;57.59;99046.54;103368;1300;96549;-68
2022/12/21 05:26:42;;;;;;;23.00;9.10;;;;;;;2.54;57.94;99049.48;103322;1295;107036;-68
2022/12/21 05:29:11;;;;;;;22.60;9.00;;;;;;;2.55;57.65;99055.91;103293;1301;97623;-68
2022/12/21 05:31:40;;;;;;;23.80;9.40;;;;;;;2.56;57.77;99056.73;103310;1302;99221;-68
2022/12/21 05:34:11;;;;;;;23.10;9.20;;;;;;;2.58;57.96;99063.15;103338;1301;112744;-67
2022/12/21 05:36:39;;;;;;;24.30;9.10;;;;;;;2.59;57.76;99063.80;103340;1300;99298;-67
2022/12/21 05:39:08;;;;;;;22.20;9.10;;;;;;;2.60;57.84;99066.58;103319;1294;108086;-67
2022/12/21 05:41:36;;;;;;;24.10;9.90;;;;;;;2.60;57.85;99075.67;103295;1301;97687;-69
2022/12/21 05:44:04;;;;;;;23.20;9.60;;;;;;;2.61;57.87;99076.16;103310;1300;97443;-69
2022/12/21 05:46:33;;;;;;;23.90;10.00;;;;;;;2.61;57.74;99077.38;103340;1296;113166;-67
2022/12/21 05:49:03;;;;;;;23.10;9.70;;;;;;;2.62;57.89;99081.72;103310;1300;97676;-67
2022/12/21 05:51:33;;;;;;;22.30;9.30;;;;;;;2.63;57.99;99079.92;103207;1286;108194;-66
2022/12/21 05:54:03;;;;;;;23.70;9.60;;;;;;;2.65;58.06;99077.38;103187;1302;99243;-68
2022/12/21 05:56:36;;;;;;;21.20;8.90;;;;;;;2.65;57.94;99076.34;103186;1294;97712;-69
2022/12/21 05:59:05;;;;;;;21.60;8.70;;;;;;;2.65;58.05;99081.24;103180;1293;112139;-70
2022/12/21 06:01:34;;;;;;;24.70;9.60;;;;;;;2.66;57.74;99072.27;103183;1302;99188;-69
2022/12/21 06:04:04;;;;;;;23.60;9.50;;;;;;;2.65;57.82;99073.89;103189;1295;107207;-67
2022/12/21 06:06:32;;;;;;;24.20;10.00;;;;;;;2.65;57.80;99077.20;103173;1300;96550;-66
2022/12/21 06:09:00;;;;;;;24.40;10.40;;;;;;;2.65;57.84;99078.77;103161;1301;99181;-68
2022/12/21 06:11:31;;;;;;;24.10;9.20;;;;;;;2.66;57.83;99075.77;103194;1301;114119;-68
2022/12/21 06:13:59;;;;;;;25.70;10.10;;;;;;;2.65;57.96;99078.25;103206;1294;99277;-67
2022/12/21 06:16:28;;;;;;;22.90;9.50;;;;;;;2.64;57.93;99071.66;103269;1302;108371;-68
2022/12/21 06:18:57;;;;;;;27.00;10.90;;;;;;;2.63;58.20;99078.01;103320;1293;99309;-68
2022/12/21 06:21:25;;;;;;;27.10;10.40;;;;;;;2.61;57.72;99079.67;103159;1296;99379;-66
2022/12/21 06:23:53;;;;;;;28.40;11.50;;;;;;;2.60;58.18;99077.77;103074;1297;113141;-69
2022/12/21 06:26:23;;;;;;;28.10;10.20;;;;;;;2.60;57.92;99076.91;103281;1296;99330;-69
2022/12/21 06:28:54;;;;;;;27.60;10.30;;;;;;;2.60;57.94;99072.17;103247;1300;108155;-68
2022/12/21 06:31:23;;;;;;;23.40;8.40;;;;;;;2.60;57.66;99066.75;103236;1300;99317;-68
2022/12/21 06:33:55;;;;;;;27.70;10.60;;;;;;;2.57;57.64;99054.44;103299;1297;99305;-66
2022/12/21 06:36:25;;;;;;;26.20;10.80;;;;;;;2.53;57.97;99050.88;103234;1295;113017;-68
2022/12/21 06:38:57;;;;;;;24.80;10.20;;;;;;;2.53;58.00;99058.27;103155;1295;99230;-66
2022/12/21 06:41:28;;;;;;;23.50;9.00;;;;;;;2.52;57.60;99065.46;103225;1294;107444;-67
2022/12/21 06:43:56;;;;;;;25.00;10.20;;;;;;;2.51;57.77;99073.55;103198;1301;99226;-66
2022/12/21 06:46:24;;;;;;;26.20;9.90;;;;;;;2.51;57.61;99081.29;103237;1294;97702;-67
2022/12/21 06:48:54;;;;;;;25.70;10.40;;;;;;;2.51;57.87;99079.33;103315;1302;113484;-67
2022/12/21 06:51:25;;;;;;;24.50;9.50;;;;;;;2.52;58.00;99079.30;103306;1293;99777;-68
2022/12/21 06:53:55;;;;;;;23.90;11.10;;;;;;;2.51;57.57;99075.67;103283;1301;108010;-66
2022/12/21 06:56:29;;;;;;;25.10;9.90;;;;;;;2.51;57.79;99079.52;103315;1294;99276;-66
2022/12/21 06:58:59;;;;;;;23.20;9.60;;;;;;;2.53;57.89;99082.09;103373;1300;99209;-67
2022/12/21 07:01:32;;;;;;;22.10;9.30;;;;;;;2.53;57.80;99091.86;103304;1301;111771;-67
2022/12/21 07:04:03;;;;;;;23.80;9.60;;;;;;;2.53;57.68;99095.52;103371;1298;99326;-67
2022/12/21 07:06:33;;;;;;;23.00;9.70;;;;;;;2.54;58.14;99099.34;103334;1300;107240;-67
2022/12/21 07:09:04;;;;;;;25.10;9.70;;;;;;;2.56;57.88;99105.44;103304;1297;96505;-66
2022/12/21 07:11:34;;;;;;;24.20;10.60;;;;;;;2.57;57.79;99097.16;103332;1293;98306;-67
2022/12/21 07:14:04;;;;;;;23.90;10.20;;;;;;;2.59;57.89;99092.54;103332;1301;112726;-70
2022/12/21 07:16:34;;;;;;;24.10;10.80;;;;;;;2.61;57.88;99092.09;103321;1301;99244;-68
2022/12/21 07:19:05;;;;;;;25.50;10.00;;;;;;;2.64;57.93;99097.94;103142;1296;108613;-69
2022/12/21 07:21:33;;;;;;;23.30;10.30;;;;;;;2.66;57.87;99100.46;103321;1300;99278;-67
2022/12/21 07:24:01;;;;;;;24.30;10.50;;;;;;;2.68;58.03;99096.56;103237;1302;99191;-67
2022/12/21 07:26:29;;;;;;;23.30;10.10;;;;;;;2.69;57.91;99100.16;103205;1294;113107;-67
2022/12/21 07:28:57;;;;;;;23.00;9.80;;;;;;;2.71;57.81;99101.49;103241;1300;99754;-66
2022/12/21 07:31:28;;;;;;;23.70;10.60;;;;;;;2.74;58.03;99104.52;103222;1299;106604;-66
2022/12/21 07:33:58;;;;;;;25.70;10.40;;;;;;;2.77;57.97;99105.63;103323;1300;99222;-67
2022/12/21 07:36:29;;;;;;;24.00;9.80;;;;;;;2.79;58.07;99104.17;103346;1301;98343;-68
2022/12/21 07:38:57;;;;;;;25.20;10.90;;;;;;;2.80;58.07;99103.23;103365;1294;112936;-66
2022/12/21 07:41:25;;;;;;;24.60;10.70;;;;;;;2.80;57.92;99098.32;103341;1283;99251;-66
2022/12/21 07:43:55;;;;;;;24.70;10.30;;;;;;;2.83;58.27;99094.73;103321;1301;108116;-69
2022/12/21 07:46:28;;;;;;;20.80;9.10;;;;;;;2.83;58.27;99095.58;103353;1295;99234;-67
2022/12/21 07:48:56;;;;;;;25.40;10.40;;;;;;;2.86;58.10;99096.87;103299;1296;99218;-67
2022/12/21 07:51:29;;;;;;;23.60;9.50;;;;;;;2.89;58.23;99098.69;103321;1297;113165;-66
2022/12/21 07:53:57;;;;;;;26.10;10.90;;;;;;;2.91;58.27;99092.13;103375;1294;99230;-68
2022/12/21 07:56:26;;;;;;;25.90;11.20;;;;;;;2.94;58.09;99091.30;103375;1298;108075;-68
2022/12/21 07:59:00;;;;;;;24.70;10.40;;;;;;;2.95;58.32;99093.00;103298;1301;99223;-67
2022/12/21 08:01:30;;;;;;;26.30;11.10;;;;;;;2.96;58.14;99092.60;103292;1297;99814;-67
2022/12/21 08:03:59;;;;;;;29.20;10.90;;;;;;;2.99;58.36;99092.85;103267;1294;112789;-67
2022/12/21 08:06:29;;;;;;;24.40;10.70;;;;;;;3.01;58.11;99091.20;103283;1300;99344;-67
2022/12/21 08:08:58;;;;;;;24.30;11.10;;;;;;;3.03;58.24;99091.11;103317;1297;108228;-69
2022/12/21 08:11:30;;;;;;;26.40;10.90;;;;;;;3.05;58.04;99083.52;103318;1301;99228;-67
2022/12/21 08:13:58;;;;;;;24.00;10.80;;;;;;;3.06;58.44;99074.69;103338;1300;99260;-67
2022/12/21 08:16:28;;;;;;;26.10;11.70;;;;;;;3.04;58.20;99075.65;103316;1295;113318;-67
2022/12/21 08:18:58;;;;;;;27.50;11.40;;;;;;;3.03;58.39;99079.89;103318;1301;99198;-68
2022/12/21 08:21:27;;;;;;;25.00;10.40;;;;;;;3.03;58.48;99071.33;103065;1301;107815;-67
2022/12/21 08:23:55;;;;;;;26.20;11.10;;;;;;;3.03;58.17;99061.69;103315;1294;96897;-67
2022/12/21 08:26:23;;;;;;;27.10;12.20;;;;;;;3.02;58.38;99060.16;103343;1300;99916;-67
2022/12/21 08:28:53;;;;;;;27.20;11.70;;;;;;;3.01;58.09;99058.62;103343;1301;113100;-68
2022/12/21 08:31:35;;;;;;;23.50;10.70;;;;;;;3.02;58.06;99059.10;103348;1294;99328;-68
2022/12/21 08:34:03;;;;;;;25.80;11.40;;;;;;;3.03;58.08;99053.45;103305;1294;107568;-68
2022/12/21 08:36:33;;;;;;;27.80;12.30;;;;;;;3.04;58.18;99059.38;103283;1300;99177;-68
2022/12/21 08:39:01;;;;;;;27.70;11.10;;;;;;;3.10;58.48;99060.33;103308;1301;99159;-66
2022/12/21 08:41:40;;;;;;;29.90;12.80;;;;;;;3.19;58.44;99063.46;103263;1296;113086;-70
2022/12/21 08:44:10;;;;;;;25.60;10.90;;;;;;;3.35;58.39;99053.67;103308;1300;99315;-70
2022/12/21 08:46:41;;;;;;;27.20;11.40;;;;;;;3.54;58.37;99053.20;103234;1294;107879;-68
2022/12/21 08:49:12;;;;;;;24.60;10.90;;;;;;;3.76;58.14;99051.70;103305;1301;99319;-67
2022/12/21 08:51:40;;;;;;;26.60;11.70;;;;;;;3.95;58.34;99052.78;103299;1301;99272;-67
2022/12/21 08:54:10;;;;;;;27.50;11.60;;;;;;;4.17;58.43;99050.55;103306;1301;113047;-68
2022/12/21 08:56:38;;;;;;;25.30;11.50;;;;;;;4.44;58.40;99041.73;103315;1294;98333;-66
2022/12/21 08:59:10;;;;;;;25.40;11.50;;;;;;;4.71;57.79;99037.30;103234;1300;108110;-68
2022/12/21 09:01:38;;;;;;;25.80;11.80;;;;;;;4.90;57.89;99039.50;103222;1294;99209;-67
2022/12/21 09:04:09;;;;;;;27.70;12.10;;;;;;;5.11;58.14;99041.30;103253;1294;96533;-68
2022/12/21 09:06:40;;;;;;;25.00;10.80;;;;;;;5.36;58.19;99035.79;103340;1301;113037;-68
2022/12/21 09:09:11;;;;;;;24.10;12.30;;;;;;;5.62;58.02;99029.52;103274;1294;97949;-68
2022/12/21 09:11:39;;;;;;;24.00;9.60;;;;;;;5.86;57.10;99028.98;103221;1301;107312;-68
2022/12/21 09:14:25;;;;;;;25.20;9.90;;;;;;;6.15;57.59;99024.08;103197;1293;99170;-68
2022/12/21 09:16:54;;;;;;;23.50;10.60;;;;;;;6.50;57.54;99016.54;103358;1301;98651;-69
2022/12/21 09:19:25;;;;;;;22.40;9.60;;;;;;;6.65;55.78;99007.02;103319;1300;112179;-69
2022/12/21 09:21:55;;;;;;;24.50;10.50;;;;;;;6.63;56.95;99001.54;103306;1296;96887;-67
2022/12/21 09:24:24;;;;;;;22.40;9.70;;;;;;;6.73;57.26;98994.77;103290;1294;108205;-66
2022/12/21 09:26:56;;;;;;;24.60;10.80;;;;;;;6.78;56.71;98984.08;103283;1302;99954;-67
2022/12/21 09:29:24;;;;;;;23.40;9.90;;;;;;;6.74;57.18;98980.59;103293;1295;99210;-66
2022/12/21 09:31:53;;;;;;;22.40;9.60;;;;;;;6.75;57.48;98983.90;103312;1303;113026;-68
2022/12/21 09:34:24;;;;;;;21.10;9.70;;;;;;;6.80;57.24;98986.27;103337;1294;96542;-67
2022/12/21 09:36:54;;;;;;;24.20;11.10;;;;;;;6.83;57.84;98982.73;103331;1293;108149;-68
2022/12/21 09:39:44;;;;;;;22.10;9.60;;;;;;;6.87;57.65;98975.66;103299;1302;98144;-69
2022/12/21 09:42:44;;;;;;;21.50;9.30;;;;;;;6.85;57.11;98966.94;103325;1301;99223;-68
2022/12/21 09:45:24;;;;;;;22.20;9.30;;;;;;;6.69;56.23;98964.52;103331;1295;112543;-68
2022/12/21 09:47:53;;;;;;;20.10;8.80;;;;;;;6.49;56.37;98960.55;103307;1288;99229;-69
2022/12/21 09:50:38;;;;;;;21.80;9.50;;;;;;;6.44;56.61;98966.30;103308;1300;107611;-69
2022/12/21 09:53:44;;;;;;;23.20;9.60;;;;;;;6.40;55.94;98961.75;103166;1304;99306;-68
2022/12/21 09:56:25;;;;;;;20.10;8.40;;;;;;;6.22;56.28;98966.98;103327;1297;99259;-70
2022/12/21 09:59:04;;;;;;;20.20;8.10;;;;;;;6.19;56.49;98962.61;103181;1304;112081;-69
2022/12/21 10:02:04;;;;;;;21.10;8.80;;;;;;;6.21;55.91;98955.98;103339;1299;99296;-67
2022/12/21 10:04:57;;;;;;;20.70;8.70;;;;;;;6.24;56.58;98947.48;103310;1295;107586;-68
2022/12/21 10:08:09;;;;;;;19.40;9.10;;;;;;;6.18;55.95;98940.80;103306;1302;99314;-68
2022/12/21 10:10:46;;;;;;;23.20;9.00;;;;;;;5.98;55.56;98940.29;103343;1294;99232;-67
2022/12/21 10:13:40;;;;;;;20.50;8.30;;;;;;;5.79;55.12;98928.52;103358;1301;112555;-67
2022/12/21 10:16:25;;;;;;;19.80;8.30;;;;;;;5.60;56.06;98921.82;103343;1294;97586;-67
2022/12/21 10:19:19;;;;;;;20.70;8.10;;;;;;;5.49;55.97;98924.66;103321;1301;108393;-66
2022/12/21 10:22:06;;;;;;;21.50;8.80;;;;;;;5.45;55.91;98932.62;103374;1300;99278;-67
2022/12/21 10:24:46;;;;;;;21.80;9.00;;;;;;;5.47;56.10;98925.83;103304;1302;99898;-68
2022/12/21 10:27:40;;;;;;;21.10;8.90;;;;;;;5.47;55.96;98913.70;103303;1294;112283;-67
2022/12/21 10:30:16;;;;;;;24.80;9.30;;;;;;;5.37;55.37;98913.02;103290;1304;99327;-67
2022/12/21 10:32:50;;;;;;;20.50;8.60;;;;;;;5.28;55.75;98910.85;103292;1294;107546;-67
2022/12/21 10:35:18;;;;;;;21.60;8.70;;;;;;;5.21;55.78;98914.02;103322;1294;99253;-66
2022/12/21 10:37:51;;;;;;;21.80;9.80;;;;;;;5.17;55.84;98914.95;103373;1287;97600;-66
2022/12/21 10:40:28;;;;;;;22.30;9.40;;;;;;;5.14;55.95;98917.23;103353;1287;112500;-66
2022/12/21 10:42:59;;;;;;;23.30;9.40;;;;;;;5.09;55.20;98912.20;103374;1293;96469;-67
2022/12/21 10:45:27;;;;;;;23.60;9.10;;;;;;;4.99;54.91;98902.88;103360;1298;108190;-67
2022/12/21 10:47:56;;;;;;;19.40;8.10;;;;;;;4.92;55.46;98901.96;103384;1294;99660;-66
2022/12/21 10:50:28;;;;;;;22.60;8.70;;;;;;;4.88;55.72;98900.27;103363;1301;99361;-67
2022/12/21 10:53:00;;;;;;;21.30;9.00;;;;;;;4.90;55.94;98894.69;103338;1301;112579;-68
2022/12/21 10:55:36;;;;;;;24.00;9.80;;;;;;;4.90;55.55;98891.91;103388;1295;99233;-68
2022/12/21 10:58:21;;;;;;;20.70;8.80;;;;;;;4.87;55.57;98893.50;103254;1295;107593;-67
2022/12/21 11:01:26;;;;;;;24.10;9.90;;;;;;;4.87;55.78;98884.32;103345;1293;99245;-66
2022/12/21 11:04:32;;;;;;;22.50;9.10;;;;;;;4.82;55.44;98885.48;103332;1294;99277;-66
2022/12/21 11:07:22;;;;;;;22.50;9.10;;;;;;;4.80;55.98;98892.06;103118;1296;113349;-67
2022/12/21 11:10:28;;;;;;;22.80;9.80;;;;;;;4.75;55.85;98879.66;103179;1300;99347;-66
2022/12/21 11:13:21;;;;;;;22.60;9.30;;;;;;;4.68;55.96;98870.04;103309;1302;107828;-67
2022/12/21 11:15:51;;;;;;;;;;;;;;;4.67;55.93;98880.64;103310;1304;99051;-67
2022/12/21 11:18:44;;;;;;;26.90;9.90;;;;;;;4.61;55.48;98892.70;103317;1295;99249;-67
2022/12/21 11:21:30;;;;;;;24.30;10.40;;;;;;;4.54;55.63;98894.45;103313;1302;112524;-67
2022/12/21 11:24:07;;;;;;;24.80;10.00;;;;;;;4.50;55.64;98889.05;103312;1295;99240;-66
2022/12/21 11:26:59;;;;;;;25.10;9.90;;;;;;;4.46;55.56;98890.08;103272;1302;108081;-66
2022/12/21 11:29:37;;;;;;;21.80;9.00;;;;;;;4.42;55.21;98903.45;103306;1287;96469;-68
2022/12/21 11:32:11;;;;;;;22.80;9.40;;;;;;;4.40;55.53;98896.17;103317;1300;96476;-67
2022/12/21 11:34:54;;;;;;;23.00;9.50;;;;;;;4.41;55.70;98898.45;103322;1301;112527;-68
2022/12/21 11:37:37;;;;;;;22.80;8.90;;;;;;;4.42;55.62;98903.65;103354;1301;99165;-68
2022/12/21 11:40:24;;;;;;;22.60;8.80;;;;;;;4.40;55.53;98906.71;103349;1294;108045;-67
2022/12/21 11:42:59;;;;;;;20.50;8.20;;;;;;;4.40;55.72;98913.06;103369;1302;99317;-68
2022/12/21 11:46:14;;;;;;;19.90;8.30;;;;;;;4.42;55.86;98907.85;103359;1293;99291;-67
2022/12/21 11:49:33;;;;;;;21.10;8.10;;;;;;;4.45;55.79;98914.39;103326;1300;114078;-67
2022/12/21 11:52:29;;;;;;;21.20;8.40;;;;;;;4.46;55.63;98908.53;103326;1301;99302;-68
2022/12/21 11:55:28;;;;;;;19.50;8.20;;;;;;;4.46;55.60;98896.95;103337;1294;107248;-68
2022/12/21 11:58:18;;;;;;;21.60;8.60;;;;;;;4.44;55.40;98891.05;103330;1301;99967;-70
2022/12/21 12:01:07;;;;;;;25.80;9.80;;;;;;;4.44;55.56;98892.48;103269;1301;99166;-70
2022/12/21 12:03:53;;;;;;;22.00;8.30;;;;;;;4.41;55.52;98888.10;103361;1298;112221;-68
2022/12/21 12:06:33;;;;;;;23.60;9.80;;;;;;;4.39;55.41;98882.20;103333;1301;99560;-67
2022/12/21 12:09:32;;;;;;;21.70;9.70;;;;;;;4.35;55.24;98886.10;103327;1298;108152;-68